sensor_id;sensor_type;location;lat;lon;timestamp;temperature;humidity
78611;SHT30;67932;50.474;4.436;2023-09-08T00:02:08;22.84;70.29
78611;SHT30;67932;50.474;4.436;2023-09-08T00:04:34;22.87;69.83
78611;SHT30;67932;50.474;4.436;2023-09-08T00:07:00;22.80;71.32
78611;SHT30;67932;50.474;4.436;2023-09-08T00:09:27;22.78;71.31
78611;SHT30;67932;50.474;4.436;2023-09-08T00:11:53;22.71;71.65
78611;SHT30;67932;50.474;4.436;2023-09-08T00:14:22;22.68;71.30
78611;SHT30;67932;50.474;4.436;2023-09-08T00:16:49;22.67;71.62
78611;SHT30;67932;50.474;4.436;2023-09-08T00:19:15;22.67;71.56
78611;SHT30;67932;50.474;4.436;2023-09-08T00:21:41;22.70;71.41
78611;SHT30;67932;50.474;4.436;2023-09-08T00:24:09;22.72;71.03
78611;SHT30;67932;50.474;4.436;2023-09-08T00:26:36;22.68;70.98
78611;SHT30;67932;50.474;4.436;2023-09-08T00:29:02;22.70;71.02
78611;SHT30;67932;50.474;4.436;2023-09-08T00:31:29;22.63;71.51
78611;SHT30;67932;50.474;4.436;2023-09-08T00:33:55;22.67;71.21
78611;SHT30;67932;50.474;4.436;2023-09-08T00:36:21;22.68;70.49
78611;SHT30;67932;50.474;4.436;2023-09-08T00:38:47;22.67;71.55
78611;SHT30;67932;50.474;4.436;2023-09-08T00:41:13;22.58;71.35
78611;SHT30;67932;50.474;4.436;2023-09-08T00:43:40;22.50;71.52
78611;SHT30;67932;50.474;4.436;2023-09-08T00:46:06;22.56;71.71
78611;SHT30;67932;50.474;4.436;2023-09-08T00:48:34;22.63;70.59
78611;SHT30;67932;50.474;4.436;2023-09-08T00:51:01;22.61;70.32
78611;SHT30;67932;50.474;4.436;2023-09-08T00:53:27;22.58;70.70
78611;SHT30;67932;50.474;4.436;2023-09-08T00:55:55;22.54;71.28
78611;SHT30;67932;50.474;4.436;2023-09-08T01:02:15;22.61;70.00
78611;SHT30;67932;50.474;4.436;2023-09-08T01:04:42;22.57;70.06
78611;SHT30;67932;50.474;4.436;2023-09-08T01:07:10;22.56;70.05
78611;SHT30;67932;50.474;4.436;2023-09-08T01:09:37;22.50;72.04
78611;SHT30;67932;50.474;4.436;2023-09-08T01:12:06;22.50;70.65
78611;SHT30;67932;50.474;4.436;2023-09-08T01:14:32;22.46;70.93
78611;SHT30;67932;50.474;4.436;2023-09-08T01:16:59;22.43;70.92
78611;SHT30;67932;50.474;4.436;2023-09-08T01:19:25;22.33;70.87
78611;SHT30;67932;50.474;4.436;2023-09-08T01:27:40;22.24;71.20
78611;SHT30;67932;50.474;4.436;2023-09-08T01:30:08;22.12;71.45
78611;SHT30;67932;50.474;4.436;2023-09-08T01:32:35;22.14;71.75
78611;SHT30;67932;50.474;4.436;2023-09-08T01:35:02;22.10;72.21
78611;SHT30;67932;50.474;4.436;2023-09-08T01:37:28;21.99;72.79
78611;SHT30;67932;50.474;4.436;2023-09-08T01:39:55;21.90;72.76
78611;SHT30;67932;50.474;4.436;2023-09-08T01:42:21;21.83;72.73
78611;SHT30;67932;50.474;4.436;2023-09-08T01:44:47;21.79;72.98
78611;SHT30;67932;50.474;4.436;2023-09-08T01:47:13;21.82;73.14
78611;SHT30;67932;50.474;4.436;2023-09-08T01:49:40;21.78;74.18
78611;SHT30;67932;50.474;4.436;2023-09-08T01:52:06;21.69;74.04
78611;SHT30;67932;50.474;4.436;2023-09-08T01:54:32;21.66;73.83
78611;SHT30;67932;50.474;4.436;2023-09-08T01:56:58;21.62;74.24
78611;SHT30;67932;50.474;4.436;2023-09-08T01:59:25;21.55;74.67
78611;SHT30;67932;50.474;4.436;2023-09-08T02:01:51;21.52;74.95
78611;SHT30;67932;50.474;4.436;2023-09-08T02:04:17;21.42;74.82
78611;SHT30;67932;50.474;4.436;2023-09-08T02:06:43;21.42;74.83
78611;SHT30;67932;50.474;4.436;2023-09-08T02:11:37;21.32;75.14
78611;SHT30;67932;50.474;4.436;2023-09-08T02:14:03;21.19;75.50
78611;SHT30;67932;50.474;4.436;2023-09-08T02:16:30;21.17;75.92
78611;SHT30;67932;50.474;4.436;2023-09-08T02:18:56;21.07;76.29
78611;SHT30;67932;50.474;4.436;2023-09-08T02:21:22;20.97;76.84
78611;SHT30;67932;50.474;4.436;2023-09-08T02:23:48;20.88;77.29
78611;SHT30;67932;50.474;4.436;2023-09-08T02:26:15;20.85;77.60
78611;SHT30;67932;50.474;4.436;2023-09-08T02:28:41;20.78;77.88
78611;SHT30;67932;50.474;4.436;2023-09-08T02:31:07;20.84;77.55
78611;SHT30;67932;50.474;4.436;2023-09-08T02:33:34;20.87;77.83
78611;SHT30;67932;50.474;4.436;2023-09-08T02:36:06;20.95;77.46
78611;SHT30;67932;50.474;4.436;2023-09-08T02:38:33;20.99;76.98
78611;SHT30;67932;50.474;4.436;2023-09-08T02:40:59;21.22;76.11
78611;SHT30;67932;50.474;4.436;2023-09-08T02:43:25;21.09;76.98
78611;SHT30;67932;50.474;4.436;2023-09-08T02:45:53;20.95;77.11
78611;SHT30;67932;50.474;4.436;2023-09-08T02:48:19;20.90;77.59
78611;SHT30;67932;50.474;4.436;2023-09-08T02:50:45;20.90;77.32
78611;SHT30;67932;50.474;4.436;2023-09-08T02:53:13;20.94;76.84
78611;SHT30;67932;50.474;4.436;2023-09-08T02:55:39;21.07;75.75
78611;SHT30;67932;50.474;4.436;2023-09-08T02:58:05;21.05;76.53
78611;SHT30;67932;50.474;4.436;2023-09-08T03:00:31;20.92;76.85
78611;SHT30;67932;50.474;4.436;2023-09-08T03:02:58;20.78;77.34
78611;SHT30;67932;50.474;4.436;2023-09-08T03:05:24;20.73;77.63
78611;SHT30;67932;50.474;4.436;2023-09-08T03:07:50;20.83;77.26
78611;SHT30;67932;50.474;4.436;2023-09-08T03:10:16;20.85;76.88
78611;SHT30;67932;50.474;4.436;2023-09-08T03:12:43;20.97;76.38
78611;SHT30;67932;50.474;4.436;2023-09-08T03:15:10;20.94;76.42
78611;SHT30;67932;50.474;4.436;2023-09-08T03:17:36;20.84;77.03
78611;SHT30;67932;50.474;4.436;2023-09-08T03:20:02;20.70;77.62
78611;SHT30;67932;50.474;4.436;2023-09-08T03:22:33;20.70;77.84
78611;SHT30;67932;50.474;4.436;2023-09-08T03:24:59;20.77;77.12
78611;SHT30;67932;50.474;4.436;2023-09-08T03:27:25;20.88;76.61
78611;SHT30;67932;50.474;4.436;2023-09-08T03:29:52;20.85;77.23
78611;SHT30;67932;50.474;4.436;2023-09-08T03:32:18;20.74;77.54
78611;SHT30;67932;50.474;4.436;2023-09-08T03:34:44;20.58;78.23
78611;SHT30;67932;50.474;4.436;2023-09-08T03:37:10;20.51;78.89
78611;SHT30;67932;50.474;4.436;2023-09-08T03:39:37;20.51;79.07
78611;SHT30;67932;50.474;4.436;2023-09-08T03:42:03;20.58;78.38
78611;SHT30;67932;50.474;4.436;2023-09-08T03:44:29;20.61;78.13
78611;SHT30;67932;50.474;4.436;2023-09-08T03:46:56;20.58;77.91
78611;SHT30;67932;50.474;4.436;2023-09-08T03:49:22;20.58;77.91
78611;SHT30;67932;50.474;4.436;2023-09-08T03:51:48;20.51;78.26
78611;SHT30;67932;50.474;4.436;2023-09-08T03:54:14;20.41;78.59
78611;SHT30;67932;50.474;4.436;2023-09-08T03:56:41;20.41;79.07
78611;SHT30;67932;50.474;4.436;2023-09-08T03:59:07;20.37;79.01
78611;SHT30;67932;50.474;4.436;2023-09-08T04:01:33;20.34;78.97
78611;SHT30;67932;50.474;4.436;2023-09-08T04:03:59;20.29;79.02
78611;SHT30;67932;50.474;4.436;2023-09-08T04:06:25;20.20;79.56
78611;SHT30;67932;50.474;4.436;2023-09-08T04:08:53;20.14;79.99
78611;SHT30;67932;50.474;4.436;2023-09-08T04:11:19;20.12;80.39
78611;SHT30;67932;50.474;4.436;2023-09-08T04:13:45;20.14;80.36
78611;SHT30;67932;50.474;4.436;2023-09-08T04:16:11;20.14;80.50
78611;SHT30;67932;50.474;4.436;2023-09-08T04:18:38;20.13;80.51
78611;SHT30;67932;50.474;4.436;2023-09-08T04:21:06;20.13;80.40
78611;SHT30;67932;50.474;4.436;2023-09-08T04:23:33;20.13;80.17
78611;SHT30;67932;50.474;4.436;2023-09-08T04:25:59;20.14;80.11
78611;SHT30;67932;50.474;4.436;2023-09-08T04:28:26;20.13;80.23
78611;SHT30;67932;50.474;4.436;2023-09-08T04:30:52;20.10;80.17
78611;SHT30;67932;50.474;4.436;2023-09-08T04:33:18;20.10;80.05
78611;SHT30;67932;50.474;4.436;2023-09-08T04:35:45;20.19;79.86
78611;SHT30;67932;50.474;4.436;2023-09-08T04:38:11;20.20;79.39
78611;SHT30;67932;50.474;4.436;2023-09-08T04:40:40;20.19;79.21
78611;SHT30;67932;50.474;4.436;2023-09-08T04:43:08;20.20;79.17
78611;SHT30;67932;50.474;4.436;2023-09-08T04:45:34;20.22;79.20
78611;SHT30;67932;50.474;4.436;2023-09-08T04:48:00;20.22;78.96
78611;SHT30;67932;50.474;4.436;2023-09-08T04:50:26;20.22;79.25
78611;SHT30;67932;50.474;4.436;2023-09-08T04:52:53;20.17;79.15
78611;SHT30;67932;50.474;4.436;2023-09-08T04:55:19;20.20;78.85
78611;SHT30;67932;50.474;4.436;2023-09-08T04:57:45;20.24;78.96
78611;SHT30;67932;50.474;4.436;2023-09-08T05:00:12;20.26;78.77
78611;SHT30;67932;50.474;4.436;2023-09-08T05:02:38;20.23;79.02
78611;SHT30;67932;50.474;4.436;2023-09-08T05:05:05;20.17;79.31
78611;SHT30;67932;50.474;4.436;2023-09-08T05:07:31;20.16;79.37
78611;SHT30;67932;50.474;4.436;2023-09-08T05:09:57;20.16;79.29
78611;SHT30;67932;50.474;4.436;2023-09-08T05:12:24;20.17;79.37
78611;SHT30;67932;50.474;4.436;2023-09-08T05:14:51;20.17;79.19
78611;SHT30;67932;50.474;4.436;2023-09-08T05:17:24;20.14;79.24
78611;SHT30;67932;50.474;4.436;2023-09-08T05:19:50;20.13;79.34
78611;SHT30;67932;50.474;4.436;2023-09-08T05:22:17;20.02;79.54
78611;SHT30;67932;50.474;4.436;2023-09-08T05:24:44;19.97;79.74
78611;SHT30;67932;50.474;4.436;2023-09-08T05:27:10;20.02;79.58
78611;SHT30;67932;50.474;4.436;2023-09-08T05:29:36;19.96;79.75
78611;SHT30;67932;50.474;4.436;2023-09-08T05:32:02;19.99;79.78
78611;SHT30;67932;50.474;4.436;2023-09-08T05:34:29;19.93;79.94
78611;SHT30;67932;50.474;4.436;2023-09-08T05:36:55;19.92;80.12
78611;SHT30;67932;50.474;4.436;2023-09-08T05:39:21;19.92;80.09
78611;SHT30;67932;50.474;4.436;2023-09-08T05:41:48;19.90;80.07
78611;SHT30;67932;50.474;4.436;2023-09-08T05:44:14;19.89;80.35
78611;SHT30;67932;50.474;4.436;2023-09-08T05:46:40;19.92;80.29
78611;SHT30;67932;50.474;4.436;2023-09-08T05:49:06;19.89;80.37
78611;SHT30;67932;50.474;4.436;2023-09-08T05:51:33;19.94;80.36
78611;SHT30;67932;50.474;4.436;2023-09-08T05:53:59;19.93;80.44
78611;SHT30;67932;50.474;4.436;2023-09-08T05:56:30;19.94;80.27
78611;SHT30;67932;50.474;4.436;2023-09-08T05:58:58;19.93;80.80
78611;SHT30;67932;50.474;4.436;2023-09-08T06:01:26;19.92;80.48
78611;SHT30;67932;50.474;4.436;2023-09-08T06:03:52;19.89;80.83
78611;SHT30;67932;50.474;4.436;2023-09-08T06:06:20;19.86;80.93
78611;SHT30;67932;50.474;4.436;2023-09-08T06:08:47;19.90;80.71
78611;SHT30;67932;50.474;4.436;2023-09-08T06:11:13;19.96;80.50
78611;SHT30;67932;50.474;4.436;2023-09-08T06:13:40;19.97;80.32
78611;SHT30;67932;50.474;4.436;2023-09-08T06:16:06;20.06;79.95
78611;SHT30;67932;50.474;4.436;2023-09-08T06:18:33;20.12;79.90
78611;SHT30;67932;50.474;4.436;2023-09-08T06:21:09;20.16;79.85
78611;SHT30;67932;50.474;4.436;2023-09-08T06:23:36;20.20;79.75
78611;SHT30;67932;50.474;4.436;2023-09-08T06:26:02;20.19;79.99
78611;SHT30;67932;50.474;4.436;2023-09-08T06:28:28;20.23;79.90
78611;SHT30;67932;50.474;4.436;2023-09-08T06:30:56;20.24;80.04
78611;SHT30;67932;50.474;4.436;2023-09-08T06:33:22;20.24;80.07
78611;SHT30;67932;50.474;4.436;2023-09-08T06:35:50;20.34;79.66
78611;SHT30;67932;50.474;4.436;2023-09-08T06:38:16;20.39;79.54
78611;SHT30;67932;50.474;4.436;2023-09-08T06:40:43;20.46;79.64
78611;SHT30;67932;50.474;4.436;2023-09-08T06:43:09;20.53;79.28
78611;SHT30;67932;50.474;4.436;2023-09-08T06:45:38;20.58;78.99
78611;SHT30;67932;50.474;4.436;2023-09-08T06:48:06;20.67;78.72
78611;SHT30;67932;50.474;4.436;2023-09-08T06:50:32;20.74;78.89
78611;SHT30;67932;50.474;4.436;2023-09-08T06:52:58;20.78;78.41
78611;SHT30;67932;50.474;4.436;2023-09-08T06:55:26;20.92;78.00
78611;SHT30;67932;50.474;4.436;2023-09-08T06:57:52;20.94;78.03
78611;SHT30;67932;50.474;4.436;2023-09-08T07:00:28;21.02;77.76
78611;SHT30;67932;50.474;4.436;2023-09-08T07:02:57;21.09;77.71
78611;SHT30;67932;50.474;4.436;2023-09-08T07:05:30;21.18;77.44
78611;SHT30;67932;50.474;4.436;2023-09-08T07:08:17;21.27;77.02
78611;SHT30;67932;50.474;4.436;2023-09-08T07:10:55;21.42;76.63
78611;SHT30;67932;50.474;4.436;2023-09-08T07:13:21;21.53;76.55
78611;SHT30;67932;50.474;4.436;2023-09-08T07:15:48;21.78;75.08
78611;SHT30;67932;50.474;4.436;2023-09-08T07:18:17;21.79;75.25
78611;SHT30;67932;50.474;4.436;2023-09-08T07:20:51;21.75;75.04
78611;SHT30;67932;50.474;4.436;2023-09-08T07:23:17;21.82;74.93
78611;SHT30;67932;50.474;4.436;2023-09-08T07:25:50;21.89;75.12
78611;SHT30;67932;50.474;4.436;2023-09-08T07:28:20;21.99;74.70
78611;SHT30;67932;50.474;4.436;2023-09-08T07:30:52;21.99;74.87
78611;SHT30;67932;50.474;4.436;2023-09-08T07:33:25;22.00;74.75
78611;SHT30;67932;50.474;4.436;2023-09-08T07:35:51;22.00;75.05
78611;SHT30;67932;50.474;4.436;2023-09-08T07:38:17;22.00;75.35
78611;SHT30;67932;50.474;4.436;2023-09-08T07:40:45;21.96;75.65
78611;SHT30;67932;50.474;4.436;2023-09-08T07:43:12;22.05;75.42
78611;SHT30;67932;50.474;4.436;2023-09-08T07:45:39;22.09;75.26
78611;SHT30;67932;50.474;4.436;2023-09-08T07:48:06;22.13;75.10
78611;SHT30;67932;50.474;4.436;2023-09-08T07:50:33;22.30;74.29
78611;SHT30;67932;50.474;4.436;2023-09-08T07:53:02;22.40;74.53
78611;SHT30;67932;50.474;4.436;2023-09-08T07:55:30;22.41;73.94
78611;SHT30;67932;50.474;4.436;2023-09-08T07:57:57;22.51;73.64
78611;SHT30;67932;50.474;4.436;2023-09-08T08:00:24;22.67;72.91
78611;SHT30;67932;50.474;4.436;2023-09-08T08:02:51;22.68;74.01
78611;SHT30;67932;50.474;4.436;2023-09-08T08:05:19;22.72;73.36
78611;SHT30;67932;50.474;4.436;2023-09-08T08:07:45;22.81;73.75
78611;SHT30;67932;50.474;4.436;2023-09-08T08:10:12;22.81;73.15
78611;SHT30;67932;50.474;4.436;2023-09-08T08:12:41;22.87;73.27
78611;SHT30;67932;50.474;4.436;2023-09-08T08:15:08;22.97;72.75
78611;SHT30;67932;50.474;4.436;2023-09-08T08:17:38;23.10;72.48
78611;SHT30;67932;50.474;4.436;2023-09-08T08:20:09;23.19;72.26
78611;SHT30;67932;50.474;4.436;2023-09-08T08:22:37;23.28;71.39
78611;SHT30;67932;50.474;4.436;2023-09-08T08:25:04;23.35;71.74
78611;SHT30;67932;50.474;4.436;2023-09-08T08:27:30;23.39;72.22
78611;SHT30;67932;50.474;4.436;2023-09-08T08:29:58;23.49;71.69
78611;SHT30;67932;50.474;4.436;2023-09-08T08:32:27;23.62;71.42
78611;SHT30;67932;50.474;4.436;2023-09-08T08:34:53;23.65;70.89
78611;SHT30;67932;50.474;4.436;2023-09-08T08:37:21;23.62;70.89
78611;SHT30;67932;50.474;4.436;2023-09-08T08:39:56;23.70;70.68
78611;SHT30;67932;50.474;4.436;2023-09-08T08:43:03;23.76;71.18
78611;SHT30;67932;50.474;4.436;2023-09-08T08:45:30;23.75;71.01
78611;SHT30;67932;50.474;4.436;2023-09-08T08:47:58;23.75;70.96
78611;SHT30;67932;50.474;4.436;2023-09-08T08:50:25;23.87;70.96
78611;SHT30;67932;50.474;4.436;2023-09-08T08:52:52;23.93;70.86
78611;SHT30;67932;50.474;4.436;2023-09-08T08:55:18;24.02;70.21
78611;SHT30;67932;50.474;4.436;2023-09-08T08:57:45;24.03;70.64
78611;SHT30;67932;50.474;4.436;2023-09-08T09:00:13;24.10;70.04
78611;SHT30;67932;50.474;4.436;2023-09-08T09:02:43;24.13;69.95
78611;SHT30;67932;50.474;4.436;2023-09-08T09:05:15;24.19;69.97
78611;SHT30;67932;50.474;4.436;2023-09-08T09:07:45;24.29;70.00
78611;SHT30;67932;50.474;4.436;2023-09-08T09:10:11;24.34;70.00
78611;SHT30;67932;50.474;4.436;2023-09-08T09:12:38;24.37;70.03
78611;SHT30;67932;50.474;4.436;2023-09-08T09:15:05;24.41;69.95
78611;SHT30;67932;50.474;4.436;2023-09-08T09:17:36;24.49;70.12
78611;SHT30;67932;50.474;4.436;2023-09-08T09:20:19;24.60;69.54
78611;SHT30;67932;50.474;4.436;2023-09-08T09:22:46;24.53;69.61
78611;SHT30;67932;50.474;4.436;2023-09-08T09:25:23;24.65;69.56
78611;SHT30;67932;50.474;4.436;2023-09-08T09:27:58;24.77;69.09
78611;SHT30;67932;50.474;4.436;2023-09-08T09:30:25;24.87;68.76
78611;SHT30;67932;50.474;4.436;2023-09-08T09:33:05;25.04;68.22
78611;SHT30;67932;50.474;4.436;2023-09-08T09:35:48;25.05;67.16
78611;SHT30;67932;50.474;4.436;2023-09-08T09:38:19;25.08;67.12
78611;SHT30;67932;50.474;4.436;2023-09-08T09:40:47;25.12;67.34
78611;SHT30;67932;50.474;4.436;2023-09-08T09:43:14;25.25;67.10
78611;SHT30;67932;50.474;4.436;2023-09-08T09:46:07;25.38;66.65
78611;SHT30;67932;50.474;4.436;2023-09-08T09:48:37;25.53;66.69
78611;SHT30;67932;50.474;4.436;2023-09-08T09:51:19;25.65;66.88
78611;SHT30;67932;50.474;4.436;2023-09-08T09:53:46;25.76;65.98
78611;SHT30;67932;50.474;4.436;2023-09-08T09:56:14;25.75;65.87
78611;SHT30;67932;50.474;4.436;2023-09-08T09:58:41;25.73;65.88
78611;SHT30;67932;50.474;4.436;2023-09-08T10:01:09;25.78;65.41
78611;SHT30;67932;50.474;4.436;2023-09-08T10:03:38;25.94;64.69
78611;SHT30;67932;50.474;4.436;2023-09-08T10:06:11;26.03;63.71
78611;SHT30;67932;50.474;4.436;2023-09-08T10:08:38;25.99;63.30
78611;SHT30;67932;50.474;4.436;2023-09-08T10:11:09;26.06;62.94
78611;SHT30;67932;50.474;4.436;2023-09-08T10:13:46;26.24;63.16
78611;SHT30;67932;50.474;4.436;2023-09-08T10:16:17;26.17;61.36
78611;SHT30;67932;50.474;4.436;2023-09-08T10:18:47;26.23;61.57
78611;SHT30;67932;50.474;4.436;2023-09-08T10:21:14;26.27;62.05
78611;SHT30;67932;50.474;4.436;2023-09-08T10:23:47;26.48;61.02
78611;SHT30;67932;50.474;4.436;2023-09-08T10:26:20;26.57;60.82
78611;SHT30;67932;50.474;4.436;2023-09-08T10:28:48;26.60;59.30
78611;SHT30;67932;50.474;4.436;2023-09-08T10:31:15;26.58;59.73
78611;SHT30;67932;50.474;4.436;2023-09-08T10:33:42;26.67;58.11
78611;SHT30;67932;50.474;4.436;2023-09-08T10:36:09;26.84;59.26
78611;SHT30;67932;50.474;4.436;2023-09-08T10:38:36;26.87;59.46
78611;SHT30;67932;50.474;4.436;2023-09-08T10:43:57;26.83;59.15
78611;SHT30;67932;50.474;4.436;2023-09-08T10:46:32;26.95;58.69
78611;SHT30;67932;50.474;4.436;2023-09-08T10:49:21;27.12;58.21
78611;SHT30;67932;50.474;4.436;2023-09-08T10:52:13;27.22;58.57
78611;SHT30;67932;50.474;4.436;2023-09-08T10:54:50;27.19;58.12
78611;SHT30;67932;50.474;4.436;2023-09-08T10:57:24;27.26;57.94
78611;SHT30;67932;50.474;4.436;2023-09-08T10:59:58;27.35;58.21
78611;SHT30;67932;50.474;4.436;2023-09-08T11:02:37;27.45;57.75
78611;SHT30;67932;50.474;4.436;2023-09-08T11:05:08;27.39;57.20
78611;SHT30;67932;50.474;4.436;2023-09-08T11:07:36;27.43;58.73
78611;SHT30;67932;50.474;4.436;2023-09-08T11:10:05;27.43;57.77
78611;SHT30;67932;50.474;4.436;2023-09-08T11:12:34;27.59;57.19
78611;SHT30;67932;50.474;4.436;2023-09-08T11:15:08;27.62;56.96
78611;SHT30;67932;50.474;4.436;2023-09-08T11:17:36;27.59;56.94
78611;SHT30;67932;50.474;4.436;2023-09-08T11:20:05;28.07;55.61
78611;SHT30;67932;50.474;4.436;2023-09-08T11:22:38;27.96;55.72
78611;SHT30;67932;50.474;4.436;2023-09-08T11:25:07;28.06;55.49
78611;SHT30;67932;50.474;4.436;2023-09-08T11:27:34;28.06;55.82
78611;SHT30;67932;50.474;4.436;2023-09-08T11:30:01;28.09;55.94
78611;SHT30;67932;50.474;4.436;2023-09-08T11:32:34;27.97;56.28
78611;SHT30;67932;50.474;4.436;2023-09-08T11:35:08;27.90;57.08
78611;SHT30;67932;50.474;4.436;2023-09-08T11:37:42;28.06;56.85
78611;SHT30;67932;50.474;4.436;2023-09-08T11:40:10;28.18;57.58
78611;SHT30;67932;50.474;4.436;2023-09-08T11:42:41;28.21;55.52
78611;SHT30;67932;50.474;4.436;2023-09-08T11:45:15;28.20;55.14
78611;SHT30;67932;50.474;4.436;2023-09-08T11:47:47;28.61;54.92
78611;SHT30;67932;50.474;4.436;2023-09-08T11:50:17;28.57;54.48
78611;SHT30;67932;50.474;4.436;2023-09-08T11:53:09;28.75;54.09
78611;SHT30;67932;50.474;4.436;2023-09-08T11:55:40;28.92;52.58
78611;SHT30;67932;50.474;4.436;2023-09-08T11:58:30;28.94;51.97
78611;SHT30;67932;50.474;4.436;2023-09-08T12:00:57;29.23;52.60
78611;SHT30;67932;50.474;4.436;2023-09-08T12:03:23;29.16;52.57
78611;SHT30;67932;50.474;4.436;2023-09-08T12:05:53;29.08;51.92
78611;SHT30;67932;50.474;4.436;2023-09-08T12:08:21;29.02;52.43
78611;SHT30;67932;50.474;4.436;2023-09-08T12:10:53;28.90;53.01
78611;SHT30;67932;50.474;4.436;2023-09-08T12:13:24;28.91;53.63
78611;SHT30;67932;50.474;4.436;2023-09-08T12:15:53;28.99;53.07
78611;SHT30;67932;50.474;4.436;2023-09-08T12:18:55;28.90;52.72
78611;SHT30;67932;50.474;4.436;2023-09-08T12:21:21;28.88;53.60
78611;SHT30;67932;50.474;4.436;2023-09-08T12:23:52;28.95;53.84
78611;SHT30;67932;50.474;4.436;2023-09-08T12:26:18;28.84;53.35
78611;SHT30;67932;50.474;4.436;2023-09-08T12:28:46;28.75;53.68
78611;SHT30;67932;50.474;4.436;2023-09-08T12:31:17;28.84;53.26
78611;SHT30;67932;50.474;4.436;2023-09-08T12:34:08;29.25;52.27
78611;SHT30;67932;50.474;4.436;2023-09-08T12:36:59;29.51;52.11
78611;SHT30;67932;50.474;4.436;2023-09-08T12:39:26;29.42;52.36
78611;SHT30;67932;50.474;4.436;2023-09-08T12:41:52;29.14;52.30
78611;SHT30;67932;50.474;4.436;2023-09-08T12:44:18;29.16;52.79
78611;SHT30;67932;50.474;4.436;2023-09-08T12:46:44;29.21;52.41
78611;SHT30;67932;50.474;4.436;2023-09-08T12:49:11;29.15;52.57
78611;SHT30;67932;50.474;4.436;2023-09-08T12:51:37;29.22;52.74
78611;SHT30;67932;50.474;4.436;2023-09-08T12:54:05;29.28;52.58
78611;SHT30;67932;50.474;4.436;2023-09-08T12:56:31;29.39;52.50
78611;SHT30;67932;50.474;4.436;2023-09-08T12:58:58;29.39;52.16
78611;SHT30;67932;50.474;4.436;2023-09-08T13:01:24;29.56;51.37
78611;SHT30;67932;50.474;4.436;2023-09-08T13:03:50;29.66;51.79
78611;SHT30;67932;50.474;4.436;2023-09-08T13:06:17;29.73;50.70
78611;SHT30;67932;50.474;4.436;2023-09-08T13:08:43;29.63;51.30
78611;SHT30;67932;50.474;4.436;2023-09-08T13:11:09;29.80;51.88
78611;SHT30;67932;50.474;4.436;2023-09-08T13:13:36;29.86;51.62
78611;SHT30;67932;50.474;4.436;2023-09-08T13:16:02;30.31;50.80
78611;SHT30;67932;50.474;4.436;2023-09-08T13:18:28;30.37;49.93
78611;SHT30;67932;50.474;4.436;2023-09-08T13:21:01;30.47;49.61
78611;SHT30;67932;50.474;4.436;2023-09-08T13:23:28;30.34;49.52
78611;SHT30;67932;50.474;4.436;2023-09-08T13:25:56;31.31;47.13
78611;SHT30;67932;50.474;4.436;2023-09-08T13:28:22;33.15;43.69
78611;SHT30;67932;50.474;4.436;2023-09-08T13:30:50;34.02;41.48
78611;SHT30;67932;50.474;4.436;2023-09-08T13:33:16;34.30;41.41
78611;SHT30;67932;50.474;4.436;2023-09-08T13:35:43;34.56;40.62
78611;SHT30;67932;50.474;4.436;2023-09-08T13:38:46;35.51;38.69
78611;SHT30;67932;50.474;4.436;2023-09-08T13:53:52;36.94;36.33
78611;SHT30;67932;50.474;4.436;2023-09-08T13:56:18;37.15;35.83
78611;SHT30;67932;50.474;4.436;2023-09-08T13:58:45;36.70;36.46
78611;SHT30;67932;50.474;4.436;2023-09-08T14:01:11;36.79;35.71
78611;SHT30;67932;50.474;4.436;2023-09-08T14:03:38;36.03;36.86
78611;SHT30;67932;50.474;4.436;2023-09-08T14:06:04;37.01;36.31
78611;SHT30;67932;50.474;4.436;2023-09-08T14:08:30;36.67;36.07
78611;SHT30;67932;50.474;4.436;2023-09-08T14:10:57;37.23;34.60
78611;SHT30;67932;50.474;4.436;2023-09-08T14:13:24;37.66;33.72
78611;SHT30;67932;50.474;4.436;2023-09-08T14:15:51;37.30;33.57
78611;SHT30;67932;50.474;4.436;2023-09-08T14:18:37;37.39;34.41
78611;SHT30;67932;50.474;4.436;2023-09-08T14:21:05;36.84;34.30
78611;SHT30;67932;50.474;4.436;2023-09-08T14:23:33;36.83;34.54
78611;SHT30;67932;50.474;4.436;2023-09-08T14:26:00;36.97;34.71
78611;SHT30;67932;50.474;4.436;2023-09-08T14:28:27;37.34;34.61
78611;SHT30;67932;50.474;4.436;2023-09-08T14:30:54;36.28;36.25
78611;SHT30;67932;50.474;4.436;2023-09-08T14:33:20;37.17;34.47
78611;SHT30;67932;50.474;4.436;2023-09-08T14:35:46;36.56;35.56
78611;SHT30;67932;50.474;4.436;2023-09-08T14:38:17;38.06;33.43
78611;SHT30;67932;50.474;4.436;2023-09-08T14:40:44;37.33;34.20
78611;SHT30;67932;50.474;4.436;2023-09-08T14:43:11;36.46;35.55
78611;SHT30;67932;50.474;4.436;2023-09-08T14:45:40;36.70;35.01
78611;SHT30;67932;50.474;4.436;2023-09-08T14:48:06;36.39;35.96
78611;SHT30;67932;50.474;4.436;2023-09-08T14:50:33;37.23;34.67
78611;SHT30;67932;50.474;4.436;2023-09-08T14:53:19;35.85;36.37
78611;SHT30;67932;50.474;4.436;2023-09-08T14:55:45;36.30;36.30
78611;SHT30;67932;50.474;4.436;2023-09-08T14:58:15;37.25;34.95
78611;SHT30;67932;50.474;4.436;2023-09-08T15:00:41;37.31;35.44
78611;SHT30;67932;50.474;4.436;2023-09-08T15:03:08;37.34;35.72
78611;SHT30;67932;50.474;4.436;2023-09-08T15:05:35;37.71;35.15
78611;SHT30;67932;50.474;4.436;2023-09-08T15:08:02;37.71;34.75
78611;SHT30;67932;50.474;4.436;2023-09-08T15:10:28;37.74;35.01
78611;SHT30;67932;50.474;4.436;2023-09-08T15:12:55;37.88;35.13
78611;SHT30;67932;50.474;4.436;2023-09-08T15:15:22;37.00;35.21
78611;SHT30;67932;50.474;4.436;2023-09-08T15:17:52;36.81;35.16
78611;SHT30;67932;50.474;4.436;2023-09-08T15:20:19;37.37;33.91
78611;SHT30;67932;50.474;4.436;2023-09-08T15:22:45;35.90;36.10
78611;SHT30;67932;50.474;4.436;2023-09-08T15:25:12;36.94;35.17
78611;SHT30;67932;50.474;4.436;2023-09-08T15:27:39;37.35;35.15
78611;SHT30;67932;50.474;4.436;2023-09-08T15:30:06;37.34;35.16
78611;SHT30;67932;50.474;4.436;2023-09-08T15:32:32;37.45;35.54
78611;SHT30;67932;50.474;4.436;2023-09-08T15:34:58;37.64;35.18
78611;SHT30;67932;50.474;4.436;2023-09-08T15:37:25;37.53;35.59
78611;SHT30;67932;50.474;4.436;2023-09-08T15:39:51;37.93;35.11
78611;SHT30;67932;50.474;4.436;2023-09-08T15:42:17;37.81;35.52
78611;SHT30;67932;50.474;4.436;2023-09-08T15:44:43;37.34;36.36
78611;SHT30;67932;50.474;4.436;2023-09-08T15:47:10;37.61;35.95
78611;SHT30;67932;50.474;4.436;2023-09-08T15:49:36;37.18;36.64
78611;SHT30;67932;50.474;4.436;2023-09-08T15:52:02;36.77;38.20
78611;SHT30;67932;50.474;4.436;2023-09-08T15:54:29;36.83;37.39
78611;SHT30;67932;50.474;4.436;2023-09-08T15:56:55;37.04;37.51
78611;SHT30;67932;50.474;4.436;2023-09-08T15:59:21;37.34;37.19
78611;SHT30;67932;50.474;4.436;2023-09-08T16:01:47;36.93;37.60
78611;SHT30;67932;50.474;4.436;2023-09-08T16:04:14;36.59;37.55
78611;SHT30;67932;50.474;4.436;2023-09-08T16:06:40;36.70;37.91